sensor_id;sensor_type;location;lat;lon;timestamp;temperature;humidity
59572;DHT22;70118;45.638;11.714;2023-11-21T00:01:42;18.80;83.80
59572;DHT22;70118;45.638;11.714;2023-11-21T00:04:08;18.80;83.90
59572;DHT22;70118;45.638;11.714;2023-11-21T00:06:34;18.70;83.90
59572;DHT22;70118;45.638;11.714;2023-11-21T00:09:00;18.80;83.90
59572;DHT22;70118;45.638;11.714;2023-11-21T00:11:26;18.70;83.80
59572;DHT22;70118;45.638;11.714;2023-11-21T00:13:52;18.70;83.90
59572;DHT22;70118;45.638;11.714;2023-11-21T00:16:18;18.70;83.80
59572;DHT22;70118;45.638;11.714;2023-11-21T00:18:44;18.70;83.90
59572;DHT22;70118;45.638;11.714;2023-11-21T00:21:12;18.80;83.90
59572;DHT22;70118;45.638;11.714;2023-11-21T00:23:38;18.70;83.90
59572;DHT22;70118;45.638;11.714;2023-11-21T00:26:04;18.80;83.80
59572;DHT22;70118;45.638;11.714;2023-11-21T00:28:30;18.70;83.80
59572;DHT22;70118;45.638;11.714;2023-11-21T00:30:56;18.80;83.70
59572;DHT22;70118;45.638;11.714;2023-11-21T00:33:22;18.70;83.70
59572;DHT22;70118;45.638;11.714;2023-11-21T00:35:48;18.70;83.60
59572;DHT22;70118;45.638;11.714;2023-11-21T00:38:13;18.70;83.50
59572;DHT22;70118;45.638;11.714;2023-11-21T00:40:39;18.70;83.70
59572;DHT22;70118;45.638;11.714;2023-11-21T00:43:05;18.70;83.50
59572;DHT22;70118;45.638;11.714;2023-11-21T00:45:31;18.70;83.40
59572;DHT22;70118;45.638;11.714;2023-11-21T00:47:57;18.70;83.50
59572;DHT22;70118;45.638;11.714;2023-11-21T00:50:23;18.70;83.70
59572;DHT22;70118;45.638;11.714;2023-11-21T00:52:50;18.70;83.60
59572;DHT22;70118;45.638;11.714;2023-11-21T00:55:17;18.70;83.30
59572;DHT22;70118;45.638;11.714;2023-11-21T00:57:43;18.80;83.50
59572;DHT22;70118;45.638;11.714;2023-11-21T01:00:10;18.70;83.50
59572;DHT22;70118;45.638;11.714;2023-11-21T01:02:44;18.70;83.70
59572;DHT22;70118;45.638;11.714;2023-11-21T01:05:11;18.70;83.50
59572;DHT22;70118;45.638;11.714;2023-11-21T01:07:37;18.70;83.60
59572;DHT22;70118;45.638;11.714;2023-11-21T01:10:04;18.70;83.80
59572;DHT22;70118;45.638;11.714;2023-11-21T01:12:36;18.70;83.60
59572;DHT22;70118;45.638;11.714;2023-11-21T01:15:06;18.60;83.70
59572;DHT22;70118;45.638;11.714;2023-11-21T01:17:37;18.60;83.70
59572;DHT22;70118;45.638;11.714;2023-11-21T01:20:04;18.70;83.60
59572;DHT22;70118;45.638;11.714;2023-11-21T01:22:38;18.70;83.80
59572;DHT22;70118;45.638;11.714;2023-11-21T01:25:05;18.80;83.80
59572;DHT22;70118;45.638;11.714;2023-11-21T01:27:33;18.70;83.80
59572;DHT22;70118;45.638;11.714;2023-11-21T01:30:00;18.70;83.60
59572;DHT22;70118;45.638;11.714;2023-11-21T01:32:25;18.70;83.60
59572;DHT22;70118;45.638;11.714;2023-11-21T01:34:51;18.70;83.70
59572;DHT22;70118;45.638;11.714;2023-11-21T01:37:17;18.70;83.70
59572;DHT22;70118;45.638;11.714;2023-11-21T01:39:43;18.70;83.70
59572;DHT22;70118;45.638;11.714;2023-11-21T01:42:10;18.70;83.70
59572;DHT22;70118;45.638;11.714;2023-11-21T01:44:36;18.70;83.60
59572;DHT22;70118;45.638;11.714;2023-11-21T01:47:02;18.70;83.50
59572;DHT22;70118;45.638;11.714;2023-11-21T01:49:33;18.70;83.60
59572;DHT22;70118;45.638;11.714;2023-11-21T01:52:00;18.70;83.50
59572;DHT22;70118;45.638;11.714;2023-11-21T01:54:26;18.70;83.40
59572;DHT22;70118;45.638;11.714;2023-11-21T01:56:52;18.70;83.50
59572;DHT22;70118;45.638;11.714;2023-11-21T01:59:20;18.60;83.50
59572;DHT22;70118;45.638;11.714;2023-11-21T02:01:49;18.70;83.60
59572;DHT22;70118;45.638;11.714;2023-11-21T02:04:18;18.60;83.60
59572;DHT22;70118;45.638;11.714;2023-11-21T02:06:45;18.60;83.40
59572;DHT22;70118;45.638;11.714;2023-11-21T02:09:11;18.60;83.60
59572;DHT22;70118;45.638;11.714;2023-11-21T02:11:40;18.70;83.50
59572;DHT22;70118;45.638;11.714;2023-11-21T02:14:06;18.70;83.50
59572;DHT22;70118;45.638;11.714;2023-11-21T02:16:34;18.60;83.60
59572;DHT22;70118;45.638;11.714;2023-11-21T02:19:02;18.60;83.40
59572;DHT22;70118;45.638;11.714;2023-11-21T02:21:30;18.60;83.30
59572;DHT22;70118;45.638;11.714;2023-11-21T02:23:56;18.60;82.90
59572;DHT22;70118;45.638;11.714;2023-11-21T02:26:22;18.60;83.10
59572;DHT22;70118;45.638;11.714;2023-11-21T02:28:48;18.70;83.30
59572;DHT22;70118;45.638;11.714;2023-11-21T02:31:14;18.70;83.40
59572;DHT22;70118;45.638;11.714;2023-11-21T02:33:40;18.60;83.40
59572;DHT22;70118;45.638;11.714;2023-11-21T02:36:06;18.60;83.60
59572;DHT22;70118;45.638;11.714;2023-11-21T02:38:32;18.60;83.30
59572;DHT22;70118;45.638;11.714;2023-11-21T02:40:58;18.60;83.50
59572;DHT22;70118;45.638;11.714;2023-11-21T02:43:26;18.60;83.40
59572;DHT22;70118;45.638;11.714;2023-11-21T02:45:52;18.60;83.30
59572;DHT22;70118;45.638;11.714;2023-11-21T02:48:18;18.60;83.30
59572;DHT22;70118;45.638;11.714;2023-11-21T02:50:44;18.60;83.40
59572;DHT22;70118;45.638;11.714;2023-11-21T02:53:10;18.60;83.40
59572;DHT22;70118;45.638;11.714;2023-11-21T02:55:36;18.60;83.40
59572;DHT22;70118;45.638;11.714;2023-11-21T02:58:03;18.70;83.30
59572;DHT22;70118;45.638;11.714;2023-11-21T03:00:31;18.60;83.30
59572;DHT22;70118;45.638;11.714;2023-11-21T03:02:57;18.60;83.50
59572;DHT22;70118;45.638;11.714;2023-11-21T03:05:23;18.60;83.40
59572;DHT22;70118;45.638;11.714;2023-11-21T03:07:49;18.60;83.40
59572;DHT22;70118;45.638;11.714;2023-11-21T03:10:15;18.60;83.50
59572;DHT22;70118;45.638;11.714;2023-11-21T03:12:41;18.60;83.40
59572;DHT22;70118;45.638;11.714;2023-11-21T03:15:08;18.60;83.40
59572;DHT22;70118;45.638;11.714;2023-11-21T03:17:36;18.60;83.40
59572;DHT22;70118;45.638;11.714;2023-11-21T03:20:03;18.50;83.50
59572;DHT22;70118;45.638;11.714;2023-11-21T03:22:29;18.50;83.40
59572;DHT22;70118;45.638;11.714;2023-11-21T03:24:55;18.60;83.40
59572;DHT22;70118;45.638;11.714;2023-11-21T03:27:21;18.50;83.50
59572;DHT22;70118;45.638;11.714;2023-11-21T03:29:48;18.50;83.30
59572;DHT22;70118;45.638;11.714;2023-11-21T03:32:14;18.60;83.40
59572;DHT22;70118;45.638;11.714;2023-11-21T03:34:58;18.50;83.30
59572;DHT22;70118;45.638;11.714;2023-11-21T03:37:24;18.60;83.30
59572;DHT22;70118;45.638;11.714;2023-11-21T03:39:51;18.50;83.20
59572;DHT22;70118;45.638;11.714;2023-11-21T03:42:17;18.60;83.20
59572;DHT22;70118;45.638;11.714;2023-11-21T03:44:43;18.50;83.30
59572;DHT22;70118;45.638;11.714;2023-11-21T03:47:08;18.50;83.20
59572;DHT22;70118;45.638;11.714;2023-11-21T03:49:34;18.50;83.20
59572;DHT22;70118;45.638;11.714;2023-11-21T03:52:00;18.60;83.30
59572;DHT22;70118;45.638;11.714;2023-11-21T03:54:26;18.50;83.30
59572;DHT22;70118;45.638;11.714;2023-11-21T03:56:52;18.60;83.30
59572;DHT22;70118;45.638;11.714;2023-11-21T03:59:18;18.50;83.30
59572;DHT22;70118;45.638;11.714;2023-11-21T04:01:44;18.50;83.40
59572;DHT22;70118;45.638;11.714;2023-11-21T04:04:10;18.50;83.30
59572;DHT22;70118;45.638;11.714;2023-11-21T04:06:37;18.50;83.40
59572;DHT22;70118;45.638;11.714;2023-11-21T04:09:03;18.60;83.40
59572;DHT22;70118;45.638;11.714;2023-11-21T04:11:30;18.50;83.40
59572;DHT22;70118;45.638;11.714;2023-11-21T04:13:56;18.50;83.30
59572;DHT22;70118;45.638;11.714;2023-11-21T04:16:21;18.50;83.30
59572;DHT22;70118;45.638;11.714;2023-11-21T04:18:47;18.40;83.30
59572;DHT22;70118;45.638;11.714;2023-11-21T04:21:13;18.40;83.30
59572;DHT22;70118;45.638;11.714;2023-11-21T04:23:39;18.40;83.30
59572;DHT22;70118;45.638;11.714;2023-11-21T04:26:06;18.50;83.30
59572;DHT22;70118;45.638;11.714;2023-11-21T04:28:32;18.50;83.40
59572;DHT22;70118;45.638;11.714;2023-11-21T04:31:00;18.50;83.30
59572;DHT22;70118;45.638;11.714;2023-11-21T04:33:31;18.40;83.40
59572;DHT22;70118;45.638;11.714;2023-11-21T04:35:59;18.50;83.20
59572;DHT22;70118;45.638;11.714;2023-11-21T04:38:29;18.50;82.70
59572;DHT22;70118;45.638;11.714;2023-11-21T04:41:05;18.50;83.20
59572;DHT22;70118;45.638;11.714;2023-11-21T04:43:35;18.40;83.30
59572;DHT22;70118;45.638;11.714;2023-11-21T04:46:02;18.40;83.30
59572;DHT22;70118;45.638;11.714;2023-11-21T04:48:28;18.40;83.40
59572;DHT22;70118;45.638;11.714;2023-11-21T04:50:55;18.40;83.30
59572;DHT22;70118;45.638;11.714;2023-11-21T04:53:27;18.50;83.30
59572;DHT22;70118;45.638;11.714;2023-11-21T04:55:55;18.40;83.30
59572;DHT22;70118;45.638;11.714;2023-11-21T04:58:25;18.40;83.30
59572;DHT22;70118;45.638;11.714;2023-11-21T05:00:51;18.50;83.40
59572;DHT22;70118;45.638;11.714;2023-11-21T05:03:17;18.40;83.20
59572;DHT22;70118;45.638;11.714;2023-11-21T05:05:43;18.50;83.30
59572;DHT22;70118;45.638;11.714;2023-11-21T05:08:09;18.40;83.30
59572;DHT22;70118;45.638;11.714;2023-11-21T05:10:35;18.50;83.20
59572;DHT22;70118;45.638;11.714;2023-11-21T05:13:03;18.40;83.20
59572;DHT22;70118;45.638;11.714;2023-11-21T05:15:29;18.40;83.30
59572;DHT22;70118;45.638;11.714;2023-11-21T05:17:55;18.40;83.10
59572;DHT22;70118;45.638;11.714;2023-11-21T05:20:25;18.40;83.20
59572;DHT22;70118;45.638;11.714;2023-11-21T05:22:51;18.40;83.20
59572;DHT22;70118;45.638;11.714;2023-11-21T05:25:17;18.40;83.20
59572;DHT22;70118;45.638;11.714;2023-11-21T05:27:47;18.40;83.20
59572;DHT22;70118;45.638;11.714;2023-11-21T05:30:14;18.40;83.20
59572;DHT22;70118;45.638;11.714;2023-11-21T05:32:40;18.40;83.20
59572;DHT22;70118;45.638;11.714;2023-11-21T05:35:09;18.40;83.20
59572;DHT22;70118;45.638;11.714;2023-11-21T05:37:44;18.50;83.20
59572;DHT22;70118;45.638;11.714;2023-11-21T05:40:11;18.40;83.20
59572;DHT22;70118;45.638;11.714;2023-11-21T05:42:39;18.50;83.20
59572;DHT22;70118;45.638;11.714;2023-11-21T05:45:06;18.40;83.20
59572;DHT22;70118;45.638;11.714;2023-11-21T05:47:40;18.40;83.30
59572;DHT22;70118;45.638;11.714;2023-11-21T05:50:08;18.40;83.20
59572;DHT22;70118;45.638;11.714;2023-11-21T05:52:38;18.40;83.30
59572;DHT22;70118;45.638;11.714;2023-11-21T05:55:08;18.40;83.20
59572;DHT22;70118;45.638;11.714;2023-11-21T05:57:38;18.40;83.10
59572;DHT22;70118;45.638;11.714;2023-11-21T06:00:09;18.40;83.30
59572;DHT22;70118;45.638;11.714;2023-11-21T06:02:44;18.30;83.20
59572;DHT22;70118;45.638;11.714;2023-11-21T06:05:10;18.40;83.10
59572;DHT22;70118;45.638;11.714;2023-11-21T06:07:37;18.40;83.00
59572;DHT22;70118;45.638;11.714;2023-11-21T06:10:05;18.30;83.10
59572;DHT22;70118;45.638;11.714;2023-11-21T06:12:34;18.30;83.00
59572;DHT22;70118;45.638;11.714;2023-11-21T06:15:04;18.40;82.90
59572;DHT22;70118;45.638;11.714;2023-11-21T06:17:33;18.40;83.00
59572;DHT22;70118;45.638;11.714;2023-11-21T06:20:21;18.30;83.00
59572;DHT22;70118;45.638;11.714;2023-11-21T06:22:50;18.30;83.10
59572;DHT22;70118;45.638;11.714;2023-11-21T06:25:16;18.40;83.00
59572;DHT22;70118;45.638;11.714;2023-11-21T06:27:44;18.30;83.10
59572;DHT22;70118;45.638;11.714;2023-11-21T06:30:11;18.40;83.00
59572;DHT22;70118;45.638;11.714;2023-11-21T06:32:39;18.30;83.00
59572;DHT22;70118;45.638;11.714;2023-11-21T06:35:06;18.40;83.20
59572;DHT22;70118;45.638;11.714;2023-11-21T06:37:33;18.40;83.00
59572;DHT22;70118;45.638;11.714;2023-11-21T06:40:00;18.40;83.20
59572;DHT22;70118;45.638;11.714;2023-11-21T06:42:26;18.30;83.20
59572;DHT22;70118;45.638;11.714;2023-11-21T06:44:53;18.30;83.10
59572;DHT22;70118;45.638;11.714;2023-11-21T06:47:23;18.40;83.10
59572;DHT22;70118;45.638;11.714;2023-11-21T06:49:56;18.30;83.10
59572;DHT22;70118;45.638;11.714;2023-11-21T06:52:38;18.40;83.20
59572;DHT22;70118;45.638;11.714;2023-11-21T06:55:14;18.30;83.20
59572;DHT22;70118;45.638;11.714;2023-11-21T06:57:41;18.40;83.20
59572;DHT22;70118;45.638;11.714;2023-11-21T07:00:09;18.40;83.10
59572;DHT22;70118;45.638;11.714;2023-11-21T07:02:36;18.30;83.10
59572;DHT22;70118;45.638;11.714;2023-11-21T07:05:04;18.40;83.30
59572;DHT22;70118;45.638;11.714;2023-11-21T07:07:31;18.40;83.20
59572;DHT22;70118;45.638;11.714;2023-11-21T07:09:57;18.40;83.20
59572;DHT22;70118;45.638;11.714;2023-11-21T07:12:23;18.40;83.30
59572;DHT22;70118;45.638;11.714;2023-11-21T07:14:50;18.30;83.40
59572;DHT22;70118;45.638;11.714;2023-11-21T07:17:16;18.40;83.40
59572;DHT22;70118;45.638;11.714;2023-11-21T07:19:43;18.40;83.50
59572;DHT22;70118;45.638;11.714;2023-11-21T07:22:08;18.40;83.40
59572;DHT22;70118;45.638;11.714;2023-11-21T07:24:34;18.30;83.40
59572;DHT22;70118;45.638;11.714;2023-11-21T07:27:02;18.40;83.40
59572;DHT22;70118;45.638;11.714;2023-11-21T07:29:31;18.40;83.50
59572;DHT22;70118;45.638;11.714;2023-11-21T07:31:57;18.40;83.30
59572;DHT22;70118;45.638;11.714;2023-11-21T07:34:22;18.40;83.30
59572;DHT22;70118;45.638;11.714;2023-11-21T07:36:48;18.50;83.30
59572;DHT22;70118;45.638;11.714;2023-11-21T07:39:14;18.40;83.30
59572;DHT22;70118;45.638;11.714;2023-11-21T07:41:48;18.50;83.40
59572;DHT22;70118;45.638;11.714;2023-11-21T07:44:16;18.40;83.40
59572;DHT22;70118;45.638;11.714;2023-11-21T07:46:43;18.40;83.40
59572;DHT22;70118;45.638;11.714;2023-11-21T07:49:17;18.50;83.40
59572;DHT22;70118;45.638;11.714;2023-11-21T07:51:51;18.40;83.40
59572;DHT22;70118;45.638;11.714;2023-11-21T07:54:18;18.40;83.30
59572;DHT22;70118;45.638;11.714;2023-11-21T07:56:44;18.40;83.20
59572;DHT22;70118;45.638;11.714;2023-11-21T07:59:11;18.50;83.30
59572;DHT22;70118;45.638;11.714;2023-11-21T08:01:38;18.50;83.20
59572;DHT22;70118;45.638;11.714;2023-11-21T08:04:05;18.50;83.10
59572;DHT22;70118;45.638;11.714;2023-11-21T08:06:32;18.40;83.00
59572;DHT22;70118;45.638;11.714;2023-11-21T08:08:58;18.40;83.00
59572;DHT22;70118;45.638;11.714;2023-11-21T08:11:24;18.40;82.90
59572;DHT22;70118;45.638;11.714;2023-11-21T08:13:51;18.40;82.90
59572;DHT22;70118;45.638;11.714;2023-11-21T08:16:18;18.40;82.90
59572;DHT22;70118;45.638;11.714;2023-11-21T08:18:44;18.40;82.90
59572;DHT22;70118;45.638;11.714;2023-11-21T08:21:13;18.40;82.90
59572;DHT22;70118;45.638;11.714;2023-11-21T08:23:38;18.40;82.90
59572;DHT22;70118;45.638;11.714;2023-11-21T08:26:05;18.50;82.60
59572;DHT22;70118;45.638;11.714;2023-11-21T08:28:30;18.40;82.90
59572;DHT22;70118;45.638;11.714;2023-11-21T08:30:57;18.50;82.80
59572;DHT22;70118;45.638;11.714;2023-11-21T08:33:22;18.40;82.90
59572;DHT22;70118;45.638;11.714;2023-11-21T08:35:49;18.50;82.80
59572;DHT22;70118;45.638;11.714;2023-11-21T08:38:15;18.50;82.90
59572;DHT22;70118;45.638;11.714;2023-11-21T08:40:41;18.50;82.80
59572;DHT22;70118;45.638;11.714;2023-11-21T08:43:06;18.50;82.80
59572;DHT22;70118;45.638;11.714;2023-11-21T08:45:34;18.50;82.80
59572;DHT22;70118;45.638;11.714;2023-11-21T08:48:02;18.40;83.00
59572;DHT22;70118;45.638;11.714;2023-11-21T08:50:29;18.50;82.80
59572;DHT22;70118;45.638;11.714;2023-11-21T08:52:54;18.40;82.90
59572;DHT22;70118;45.638;11.714;2023-11-21T08:55:21;18.50;82.90
59572;DHT22;70118;45.638;11.714;2023-11-21T08:57:47;18.40;82.80
59572;DHT22;70118;45.638;11.714;2023-11-21T09:00:14;18.30;82.80
59572;DHT22;70118;45.638;11.714;2023-11-21T09:02:43;18.40;82.80
59572;DHT22;70118;45.638;11.714;2023-11-21T09:05:10;18.50;82.80
59572;DHT22;70118;45.638;11.714;2023-11-21T09:07:37;18.50;82.80
59572;DHT22;70118;45.638;11.714;2023-11-21T09:10:04;18.50;82.60
59572;DHT22;70118;45.638;11.714;2023-11-21T09:12:33;18.50;82.60
59572;DHT22;70118;45.638;11.714;2023-11-21T09:15:05;18.40;82.70
59572;DHT22;70118;45.638;11.714;2023-11-21T09:17:32;18.40;82.60
59572;DHT22;70118;45.638;11.714;2023-11-21T09:19:58;18.40;82.70
59572;DHT22;70118;45.638;11.714;2023-11-21T09:22:24;18.40;82.60
59572;DHT22;70118;45.638;11.714;2023-11-21T09:24:51;18.50;82.80
59572;DHT22;70118;45.638;11.714;2023-11-21T09:27:18;18.50;82.80
59572;DHT22;70118;45.638;11.714;2023-11-21T09:29:44;18.40;82.70
59572;DHT22;70118;45.638;11.714;2023-11-21T09:32:10;18.50;82.80
59572;DHT22;70118;45.638;11.714;2023-11-21T09:34:40;18.50;82.80
59572;DHT22;70118;45.638;11.714;2023-11-21T09:37:05;18.40;82.90
59572;DHT22;70118;45.638;11.714;2023-11-21T09:39:32;18.40;82.80
59572;DHT22;70118;45.638;11.714;2023-11-21T09:42:16;18.40;82.80
59572;DHT22;70118;45.638;11.714;2023-11-21T09:47:39;18.50;82.80
59572;DHT22;70118;45.638;11.714;2023-11-21T09:50:06;18.50;82.70
59572;DHT22;70118;45.638;11.714;2023-11-21T09:55:19;18.40;82.90
59572;DHT22;70118;45.638;11.714;2023-11-21T09:57:48;18.40;82.70
59572;DHT22;70118;45.638;11.714;2023-11-21T10:00:16;18.40;82.70
59572;DHT22;70118;45.638;11.714;2023-11-21T10:02:44;18.40;82.70
59572;DHT22;70118;45.638;11.714;2023-11-21T10:05:10;18.50;82.70
59572;DHT22;70118;45.638;11.714;2023-11-21T10:07:39;18.50;82.70
59572;DHT22;70118;45.638;11.714;2023-11-21T10:10:07;18.40;82.70
59572;DHT22;70118;45.638;11.714;2023-11-21T10:12:35;18.40;82.60
59572;DHT22;70118;45.638;11.714;2023-11-21T10:15:03;18.50;82.70
59572;DHT22;70118;45.638;11.714;2023-11-21T10:17:32;18.40;82.60
59572;DHT22;70118;45.638;11.714;2023-11-21T10:20:07;18.50;82.60
59572;DHT22;70118;45.638;11.714;2023-11-21T10:22:42;18.40;82.70
59572;DHT22;70118;45.638;11.714;2023-11-21T10:25:12;18.50;82.70
59572;DHT22;70118;45.638;11.714;2023-11-21T10:27:42;18.50;82.70
59572;DHT22;70118;45.638;11.714;2023-11-21T10:30:09;18.50;82.60
59572;DHT22;70118;45.638;11.714;2023-11-21T10:32:41;18.40;82.70
59572;DHT22;70118;45.638;11.714;2023-11-21T10:35:08;18.50;82.70
59572;DHT22;70118;45.638;11.714;2023-11-21T10:37:39;18.40;82.70
59572;DHT22;70118;45.638;11.714;2023-11-21T10:40:09;18.40;82.60
59572;DHT22;70118;45.638;11.714;2023-11-21T10:42:40;18.40;82.50
59572;DHT22;70118;45.638;11.714;2023-11-21T10:45:07;18.40;82.50
59572;DHT22;70118;45.638;11.714;2023-11-21T10:47:39;18.50;82.60
59572;DHT22;70118;45.638;11.714;2023-11-21T10:50:05;18.40;82.50
59572;DHT22;70118;45.638;11.714;2023-11-21T10:52:31;18.40;82.50
59572;DHT22;70118;45.638;11.714;2023-11-21T10:54:57;18.50;82.60
59572;DHT22;70118;45.638;11.714;2023-11-21T10:57:25;18.50;82.40
59572;DHT22;70118;45.638;11.714;2023-11-21T10:59:54;18.50;82.50
59572;DHT22;70118;45.638;11.714;2023-11-21T11:02:25;18.40;82.50
59572;DHT22;70118;45.638;11.714;2023-11-21T11:04:54;18.60;82.40
59572;DHT22;70118;45.638;11.714;2023-11-21T11:07:27;18.50;82.30
59572;DHT22;70118;45.638;11.714;2023-11-21T11:09:56;18.50;82.40
59572;DHT22;70118;45.638;11.714;2023-11-21T11:12:24;18.50;82.40
59572;DHT22;70118;45.638;11.714;2023-11-21T11:14:51;18.50;82.30
59572;DHT22;70118;45.638;11.714;2023-11-21T11:17:19;18.60;82.40
59572;DHT22;70118;45.638;11.714;2023-11-21T11:19:48;18.50;82.30
59572;DHT22;70118;45.638;11.714;2023-11-21T11:22:37;18.50;82.30
59572;DHT22;70118;45.638;11.714;2023-11-21T11:38:31;18.60;83.20
59572;DHT22;70118;45.638;11.714;2023-11-21T11:41:01;18.60;83.40
59572;DHT22;70118;45.638;11.714;2023-11-21T11:43:29;18.60;83.50
59572;DHT22;70118;45.638;11.714;2023-11-21T11:45:57;18.50;83.50
59572;DHT22;70118;45.638;11.714;2023-11-21T11:48:28;18.60;83.50
59572;DHT22;70118;45.638;11.714;2023-11-21T11:51:06;18.60;83.70
59572;DHT22;70118;45.638;11.714;2023-11-21T11:53:39;18.60;83.90
59572;DHT22;70118;45.638;11.714;2023-11-21T11:56:28;18.60;83.80
59572;DHT22;70118;45.638;11.714;2023-11-21T11:59:03;18.60;84.20
59572;DHT22;70118;45.638;11.714;2023-11-21T12:01:35;18.60;83.90
59572;DHT22;70118;45.638;11.714;2023-11-21T12:06:46;18.60;83.90
59572;DHT22;70118;45.638;11.714;2023-11-21T12:09:22;18.60;83.70
59572;DHT22;70118;45.638;11.714;2023-11-21T12:11:51;18.60;83.90
59572;DHT22;70118;45.638;11.714;2023-11-21T12:14:17;18.60;83.80
59572;DHT22;70118;45.638;11.714;2023-11-21T12:16:44;18.60;83.70
59572;DHT22;70118;45.638;11.714;2023-11-21T12:19:13;18.60;83.70
59572;DHT22;70118;45.638;11.714;2023-11-21T12:21:39;18.60;83.80
59572;DHT22;70118;45.638;11.714;2023-11-21T12:24:09;18.60;83.70
59572;DHT22;70118;45.638;11.714;2023-11-21T12:26:36;18.60;83.60
59572;DHT22;70118;45.638;11.714;2023-11-21T12:29:02;18.60;83.80
59572;DHT22;70118;45.638;11.714;2023-11-21T12:31:30;18.60;83.70
59572;DHT22;70118;45.638;11.714;2023-11-21T12:33:56;18.60;83.60
59572;DHT22;70118;45.638;11.714;2023-11-21T12:36:23;18.60;83.70
59572;DHT22;70118;45.638;11.714;2023-11-21T12:38:51;18.60;83.60
59572;DHT22;70118;45.638;11.714;2023-11-21T12:41:16;18.60;83.50
59572;DHT22;70118;45.638;11.714;2023-11-21T12:43:43;18.60;83.30
59572;DHT22;70118;45.638;11.714;2023-11-21T12:46:11;18.70;83.10
59572;DHT22;70118;45.638;11.714;2023-11-21T12:48:41;18.60;83.00
59572;DHT22;70118;45.638;11.714;2023-11-21T12:51:08;18.50;82.90
59572;DHT22;70118;45.638;11.714;2023-11-21T12:53:35;18.60;82.80
59572;DHT22;70118;45.638;11.714;2023-11-21T12:56:22;18.60;82.90
59572;DHT22;70118;45.638;11.714;2023-11-21T12:58:54;18.50;83.10
59572;DHT22;70118;45.638;11.714;2023-11-21T13:01:25;18.50;82.90
59572;DHT22;70118;45.638;11.714;2023-11-21T13:03:53;18.50;83.20
59572;DHT22;70118;45.638;11.714;2023-11-21T13:06:19;18.60;83.40
59572;DHT22;70118;45.638;11.714;2023-11-21T13:08:51;18.60;83.30
59572;DHT22;70118;45.638;11.714;2023-11-21T13:11:19;18.50;83.40
59572;DHT22;70118;45.638;11.714;2023-11-21T13:13:45;18.60;83.40
59572;DHT22;70118;45.638;11.714;2023-11-21T13:16:11;18.50;83.30
59572;DHT22;70118;45.638;11.714;2023-11-21T13:18:41;18.60;83.30
59572;DHT22;70118;45.638;11.714;2023-11-21T13:21:08;18.60;83.50
59572;DHT22;70118;45.638;11.714;2023-11-21T13:23:40;18.60;83.50
59572;DHT22;70118;45.638;11.714;2023-11-21T13:26:07;18.60;83.40
59572;DHT22;70118;45.638;11.714;2023-11-21T13:28:34;18.70;83.40
59572;DHT22;70118;45.638;11.714;2023-11-21T13:31:01;18.60;83.20
59572;DHT22;70118;45.638;11.714;2023-11-21T13:33:49;18.70;83.30
59572;DHT22;70118;45.638;11.714;2023-11-21T13:36:24;18.60;83.40
59572;DHT22;70118;45.638;11.714;2023-11-21T13:38:59;18.60;83.40
59572;DHT22;70118;45.638;11.714;2023-11-21T13:41:30;18.60;83.50
59572;DHT22;70118;45.638;11.714;2023-11-21T13:43:59;18.60;83.40
59572;DHT22;70118;45.638;11.714;2023-11-21T13:46:39;18.60;83.50
59572;DHT22;70118;45.638;11.714;2023-11-21T13:49:05;18.70;83.40
59572;DHT22;70118;45.638;11.714;2023-11-21T13:51:36;18.60;83.40
59572;DHT22;70118;45.638;11.714;2023-11-21T13:54:10;18.60;83.30
59572;DHT22;70118;45.638;11.714;2023-11-21T13:56:36;18.60;83.50
59572;DHT22;70118;45.638;11.714;2023-11-21T13:59:03;18.60;83.40
59572;DHT22;70118;45.638;11.714;2023-11-21T14:01:40;18.60;83.50
59572;DHT22;70118;45.638;11.714;2023-11-21T14:04:23;18.60;83.60
59572;DHT22;70118;45.638;11.714;2023-11-21T14:06:58;18.60;83.50
59572;DHT22;70118;45.638;11.714;2023-11-21T14:09:26;18.60;83.70
59572;DHT22;70118;45.638;11.714;2023-11-21T14:11:58;18.60;83.50
59572;DHT22;70118;45.638;11.714;2023-11-21T14:14:27;18.60;83.60
59572;DHT22;70118;45.638;11.714;2023-11-21T14:16:56;18.60;83.70
59572;DHT22;70118;45.638;11.714;2023-11-21T14:19:22;18.60;83.70
59572;DHT22;70118;45.638;11.714;2023-11-21T14:21:52;18.60;83.70
59572;DHT22;70118;45.638;11.714;2023-11-21T14:24:19;18.60;83.70
59572;DHT22;70118;45.638;11.714;2023-11-21T14:26:46;18.70;83.70
59572;DHT22;70118;45.638;11.714;2023-11-21T14:29:13;18.60;83.70
59572;DHT22;70118;45.638;11.714;2023-11-21T14:31:41;18.70;83.70
59572;DHT22;70118;45.638;11.714;2023-11-21T14:34:09;18.60;83.80
59572;DHT22;70118;45.638;11.714;2023-11-21T14:36:36;18.70;83.80
59572;DHT22;70118;45.638;11.714;2023-11-21T14:39:05;18.60;83.80
59572;DHT22;70118;45.638;11.714;2023-11-21T14:41:52;18.60;83.90
59572;DHT22;70118;45.638;11.714;2023-11-21T14:44:20;18.60;83.80
59572;DHT22;70118;45.638;11.714;2023-11-21T14:46:49;18.70;83.80
59572;DHT22;70118;45.638;11.714;2023-11-21T14:49:16;18.70;83.90
59572;DHT22;70118;45.638;11.714;2023-11-21T14:51:46;18.60;83.80
59572;DHT22;70118;45.638;11.714;2023-11-21T14:54:33;18.80;83.80
59572;DHT22;70118;45.638;11.714;2023-11-21T14:57:13;18.70;83.80
59572;DHT22;70118;45.638;11.714;2023-11-21T14:59:45;18.70;83.90
59572;DHT22;70118;45.638;11.714;2023-11-21T15:02:20;18.70;83.90
59572;DHT22;70118;45.638;11.714;2023-11-21T15:05:06;18.70;83.90
59572;DHT22;70118;45.638;11.714;2023-11-21T15:07:39;18.70;83.80
59572;DHT22;70118;45.638;11.714;2023-11-21T15:10:05;18.70;83.80
59572;DHT22;70118;45.638;11.714;2023-11-21T15:12:36;18.70;83.80
59572;DHT22;70118;45.638;11.714;2023-11-21T15:15:04;18.80;83.90
59572;DHT22;70118;45.638;11.714;2023-11-21T15:17:33;18.70;83.70
59572;DHT22;70118;45.638;11.714;2023-11-21T15:19:59;18.70;83.90
59572;DHT22;70118;45.638;11.714;2023-11-21T15:22:25;18.70;83.70
59572;DHT22;70118;45.638;11.714;2023-11-21T15:24:53;18.70;83.90
59572;DHT22;70118;45.638;11.714;2023-11-21T15:27:19;18.70;83.80
59572;DHT22;70118;45.638;11.714;2023-11-21T15:29:45;18.70;83.80
59572;DHT22;70118;45.638;11.714;2023-11-21T15:32:12;18.70;83.80
59572;DHT22;70118;45.638;11.714;2023-11-21T15:34:38;18.70;83.80
59572;DHT22;70118;45.638;11.714;2023-11-21T15:37:06;18.70;83.70
59572;DHT22;70118;45.638;11.714;2023-11-21T15:39:36;18.70;83.60
59572;DHT22;70118;45.638;11.714;2023-11-21T15:42:02;18.70;83.80
59572;DHT22;70118;45.638;11.714;2023-11-21T15:44:29;18.70;83.70